Nebraska City, NE

1:18 PM CDT on August 22, 2014 (GMT -0500)
Offutt Air Force Base | Change Station
CLOSE
Current Station
Airport
Location: Omaha Offutt,
Elevation: 1047 ft
Nearby Weather Stations

Elev 1047 ft 41.12 °N, 95.91 °W | Updated 20 minutes ago

Mostly Cloudy
Mostly Cloudy
88 °F
Feels Like 102 °F
N
2
Wind Variable Wind from Variable

Today
High -- | Low -- °F
--% Chance of Precip.
Yesterday
High -- | Low -- °F
Precip. -- in
6:40 AM 8:11 PM
Waning Crescent, 7% visible
Pressure 29.89 in
Visibility 10.0 miles
Clouds Few 3000 ft
Scattered Clouds 16000 ft
Mostly Cloudy 25000 ft
Heat Index 102 °F
Dew Point 79 °F
Humidity 75%
Rainfall 0.47 in
Snow Depth Not available.
UV 5 out of 12
Pollen 8.70 out of 12
Air Quality Not available.
Flu Activity Not available.
METAR KOFF 221758Z VRB02KT 10SM FEW030 SCT160 BKN250 31/26 A2991 RMK AO2A SLP122 T03090260 10311 20215 55003

More Conditions Fewer Conditions

Pressure 29.89 in
Visibility 10.0 miles
Clouds Few 3000 ft
Scattered Clouds 16000 ft
Mostly Cloudy 25000 ft
Heat Index 102 °F
Dew Point 79 °F
Humidity 75%
Rainfall 0.47 in
Snow Depth Not available.
UV 5 out of 12
Pollen 8.70 out of 12
Air Quality Not available.
Flu Activity Not available.
METAR KOFF 221758Z VRB02KT 10SM FEW030 SCT160 BKN250 31/26 A2991 RMK AO2A SLP122 T03090260 10311 20215 55003

More Conditions Fewer Conditions

10-Day Weather Forecast

Almanac

Astronomy

Aug. 22, 2014 Rise Set
Actual Time 6:40 AM CDT 8:11 PM CDT
Civil Twilight 6:11 AM CDT 8:39 PM CDT
Nautical Twilight 5:37 AM CDT 9:14 PM CDT
Astronomical Twilight 5:00 AM CDT 9:50 PM CDT
Moon 4:03 AM CDT 6:20 PM CDT
Length of Visible Light 14h 27m
Length of Day
13h 30m
Tomorrow will be 2m 29s shorter.
Waning Crescent, 7% of the Moon is Illuminated
Today
Waning Crescent
Aug 25
New
Sep 2
First Quarter
Sep 8
Full
Sep 15
Last Quarter

Today's Extremes

State Highs State Lows

Community

WunderPhotos

Upload Photos

1,746,214 photos uploaded!

WunderBlogs® & News

Nearby

Snow Depth

Station Depth Elevation
No new snow has been reported.

Earthquake Activity

City Distance Mag. Time & Date
No recent earthquake activity has been reported nearby.
Minimum magnitude displayed is 2.5.

Coastal Water Temperatures

Place Temperature
No Stations Reporting

Nearby Weather Stations